Somerset, KY

4:57 PM EDT on July 25, 2014 (GMT -0400)
RMR - Somerset (KKYFERGU2) Elev 909 ft | 37.10 °N, 84.60 °W | Change Station

Current weather conditions updated 9 minutes ago

Partly Cloudy
Partly Cloudy
78.6 °F
Feels Like 80 °F
N
1.0
Wind Variable Wind from ENE
Gusts 5.0 mph

Tomorrow is forecast to be Much Warmer than today.

Today
High -- | Low -- °F
--% Chance of Precip.
Yesterday
High -- | Low -- °F
Precip. -- in
6:37 AM 8:51 PM
Waning Crescent, 1% visible
Pressure 30.07 in
Visibility 10.0 miles
Clouds Scattered Clouds 4200 ft
Heat Index 80 °F
Dew Point 60 °F
Humidity 54%
Rainfall 0.02 in
Snow Depth Not available.
UV 6 out of 12
Pollen 4.20 out of 12
Air Quality Not available.
Flu Activity Not available.
METAR KSME 252035Z AUTO 00000KT 10SM SCT042 25/13 A3007 RMK AO2

More Conditions Fewer Conditions

Pressure 30.07 in
Visibility 10.0 miles
Clouds Scattered Clouds 4200 ft
Heat Index 80 °F
Dew Point 60 °F
Humidity 54%
Rainfall 0.02 in
Snow Depth Not available.
UV 6 out of 12
Pollen 4.20 out of 12
Air Quality Not available.
Flu Activity Not available.
METAR KSME 252035Z AUTO 00000KT 10SM SCT042 25/13 A3007 RMK AO2

More Conditions Fewer Conditions

10-Day Weather Forecast

Almanac

Astronomy

Jul. 25, 2014 Rise Set
Actual Time 6:37 AM EDT 8:51 PM EDT
Civil Twilight 6:08 AM EDT 9:20 PM EDT
Nautical Twilight 5:32 AM EDT 9:56 PM EDT
Astronomical Twilight 4:53 AM EDT 10:35 PM EDT
Moon 5:35 AM EDT 7:49 PM EDT
Length of Visible Light 15h 12m
Length of Day
14h 13m
Tomorrow will be 1m 35s shorter.
Waning Crescent, 1% of the Moon is Illuminated
Today
Waning Crescent
Jul 26
New
Aug 3
First Quarter
Aug 10
Full
Aug 17
Last Quarter

Today's Extremes

State Highs State Lows

Community

WunderPhotos

Upload Photos

1,737,396 photos uploaded!

Nearby

Snow Depth

Station Depth Elevation
No new snow has been reported.

Earthquake Activity

City Distance Mag. Time & Date
No recent earthquake activity has been reported nearby.
Minimum magnitude displayed is 2.5.

Coastal Water Temperatures

Place Temperature
No Stations Reporting

Nearby Weather Stations

Station Location Temp. Heat Index Dew Point Humidity Wind Precip. Elev Updated Type
RMR - Somerset, Ferguson, KY 78.6 °F 80 °F 60 °F 54% ENE  at  1.0 mph 0.00 in / hr 909 ft 4:48 PM EDT Normal
RAWS SOMERSET KY, Ferguson, KY 80 °F 81 °F 60 °F 50% WSW  at  6 mph 0.00 in / hr 920 ft 4:01 PM EDT MADIS
HALLS BACKYARD WEATHER, SCIENCE HILL, KY 77.6 °F 79 °F 61 °F 56% North  at  0.0 mph 0.00 in / hr 1076 ft 4:56 PM EDT Normal
Burnside, KY 85.3 °F 82 °F 38 °F 19% SW  at  0.0 mph 0.00 in / hr 1200 ft 4:57 PM EDT Rapid Fire
Colonial Estates, Monticello, KY 82.0 °F 82 °F 57 °F 43% North  at  3.1 mph 0.00 in / hr 1004 ft 4:55 PM EDT Normal
MSWO, London, KY 78.8 °F 80 °F 57 °F 47% West  at  0.9 mph 0.00 in / hr 1163 ft 4:57 PM EDT Rapid Fire

Show More Stations Show Fewer Stations